sensor_id;sensor_type;location;lat;lon;timestamp;P1;durP1;ratioP1;P2;durP2;ratioP2
25127;SDS011;13107;51.304;6.866;2023-05-10T00:00:57;17.95;;;12.60;;
25127;SDS011;13107;51.304;6.866;2023-05-10T00:04:59;16.30;;;12.18;;
25127;SDS011;13107;51.304;6.866;2023-05-10T00:09:00;18.73;;;12.77;;
25127;SDS011;13107;51.304;6.866;2023-05-10T00:13:02;17.62;;;13.27;;
25127;SDS011;13107;51.304;6.866;2023-05-10T00:17:04;19.67;;;13.43;;
25127;SDS011;13107;51.304;6.866;2023-05-10T00:21:06;17.65;;;12.57;;
25127;SDS011;13107;51.304;6.866;2023-05-10T00:25:08;18.70;;;13.15;;
25127;SDS011;13107;51.304;6.866;2023-05-10T00:29:10;18.77;;;13.90;;
25127;SDS011;13107;51.304;6.866;2023-05-10T00:33:11;19.77;;;14.32;;
25127;SDS011;13107;51.304;6.866;2023-05-10T00:37:13;19.98;;;13.82;;
25127;SDS011;13107;51.304;6.866;2023-05-10T00:41:15;21.20;;;14.98;;
25127;SDS011;13107;51.304;6.866;2023-05-10T00:45:17;22.85;;;14.87;;
25127;SDS011;13107;51.304;6.866;2023-05-10T00:49:18;22.77;;;16.30;;
25127;SDS011;13107;51.304;6.866;2023-05-10T00:53:21;21.75;;;16.40;;
25127;SDS011;13107;51.304;6.866;2023-05-10T00:57:23;21.62;;;15.30;;
25127;SDS011;13107;51.304;6.866;2023-05-10T01:01:25;25.10;;;16.42;;
25127;SDS011;13107;51.304;6.866;2023-05-10T01:05:27;22.48;;;16.02;;
25127;SDS011;13107;51.304;6.866;2023-05-10T01:09:29;23.87;;;16.12;;
25127;SDS011;13107;51.304;6.866;2023-05-10T01:17:39;21.48;;;16.33;;
25127;SDS011;13107;51.304;6.866;2023-05-10T01:21:53;20.23;;;15.23;;
25127;SDS011;13107;51.304;6.866;2023-05-10T01:35:20;20.62;;;14.85;;
25127;SDS011;13107;51.304;6.866;2023-05-10T01:39:32;20.58;;;15.07;;
25127;SDS011;13107;51.304;6.866;2023-05-10T01:48:16;23.08;;;15.43;;
25127;SDS011;13107;51.304;6.866;2023-05-10T01:52:29;22.48;;;16.00;;
25127;SDS011;13107;51.304;6.866;2023-05-10T01:56:34;22.13;;;17.12;;
25127;SDS011;13107;51.304;6.866;2023-05-10T02:00:39;24.80;;;17.10;;
25127;SDS011;13107;51.304;6.866;2023-05-10T02:04:44;27.13;;;17.30;;
25127;SDS011;13107;51.304;6.866;2023-05-10T02:08:47;20.88;;;15.93;;
25127;SDS011;13107;51.304;6.866;2023-05-10T02:12:51;21.48;;;15.00;;
25127;SDS011;13107;51.304;6.866;2023-05-10T02:16:54;22.17;;;15.27;;
25127;SDS011;13107;51.304;6.866;2023-05-10T02:20:58;20.33;;;15.00;;
25127;SDS011;13107;51.304;6.866;2023-05-10T02:25:01;20.12;;;15.35;;
25127;SDS011;13107;51.304;6.866;2023-05-10T02:29:05;22.00;;;15.40;;
25127;SDS011;13107;51.304;6.866;2023-05-10T02:33:09;20.10;;;14.23;;
25127;SDS011;13107;51.304;6.866;2023-05-10T02:37:13;20.67;;;13.52;;
25127;SDS011;13107;51.304;6.866;2023-05-10T02:41:16;21.33;;;13.88;;
25127;SDS011;13107;51.304;6.866;2023-05-10T02:45:21;18.62;;;13.25;;
25127;SDS011;13107;51.304;6.866;2023-05-10T02:49:26;18.27;;;13.62;;
25127;SDS011;13107;51.304;6.866;2023-05-10T02:53:31;21.80;;;14.60;;
25127;SDS011;13107;51.304;6.866;2023-05-10T02:57:34;23.70;;;14.60;;
25127;SDS011;13107;51.304;6.866;2023-05-10T03:01:39;20.17;;;14.35;;
25127;SDS011;13107;51.304;6.866;2023-05-10T03:05:41;23.40;;;13.60;;
25127;SDS011;13107;51.304;6.866;2023-05-10T03:09:43;22.30;;;14.32;;
25127;SDS011;13107;51.304;6.866;2023-05-10T03:19:05;21.55;;;15.23;;
25127;SDS011;13107;51.304;6.866;2023-05-10T03:22:50;22.92;;;15.05;;
25127;SDS011;13107;51.304;6.866;2023-05-10T03:26:56;21.20;;;14.80;;
25127;SDS011;13107;51.304;6.866;2023-05-10T03:31:04;24.45;;;15.40;;
25127;SDS011;13107;51.304;6.866;2023-05-10T03:35:07;22.75;;;14.32;;
25127;SDS011;13107;51.304;6.866;2023-05-10T03:39:13;21.80;;;14.43;;
25127;SDS011;13107;51.304;6.866;2023-05-10T03:43:15;20.17;;;14.43;;
25127;SDS011;13107;51.304;6.866;2023-05-10T03:47:16;22.10;;;15.25;;
25127;SDS011;13107;51.304;6.866;2023-05-10T03:51:18;20.35;;;13.98;;
25127;SDS011;13107;51.304;6.866;2023-05-10T03:55:20;23.00;;;14.15;;
25127;SDS011;13107;51.304;6.866;2023-05-10T03:59:21;23.55;;;14.50;;
25127;SDS011;13107;51.304;6.866;2023-05-10T04:03:23;23.30;;;14.40;;
25127;SDS011;13107;51.304;6.866;2023-05-10T04:07:27;24.08;;;16.12;;
25127;SDS011;13107;51.304;6.866;2023-05-10T04:11:28;25.70;;;17.23;;
25127;SDS011;13107;51.304;6.866;2023-05-10T04:15:30;26.67;;;15.85;;
25127;SDS011;13107;51.304;6.866;2023-05-10T04:19:32;24.02;;;15.45;;
25127;SDS011;13107;51.304;6.866;2023-05-10T04:23:33;27.75;;;17.20;;
25127;SDS011;13107;51.304;6.866;2023-05-10T04:27:35;28.50;;;16.92;;
25127;SDS011;13107;51.304;6.866;2023-05-10T04:31:37;29.35;;;17.92;;
25127;SDS011;13107;51.304;6.866;2023-05-10T04:35:39;30.23;;;19.37;;
25127;SDS011;13107;51.304;6.866;2023-05-10T04:39:41;30.45;;;18.00;;
25127;SDS011;13107;51.304;6.866;2023-05-10T04:43:42;30.85;;;19.33;;
25127;SDS011;13107;51.304;6.866;2023-05-10T04:47:44;32.40;;;19.60;;
25127;SDS011;13107;51.304;6.866;2023-05-10T04:51:46;34.42;;;20.40;;
25127;SDS011;13107;51.304;6.866;2023-05-10T04:55:48;37.05;;;20.27;;
25127;SDS011;13107;51.304;6.866;2023-05-10T04:59:50;32.95;;;19.37;;
25127;SDS011;13107;51.304;6.866;2023-05-10T05:03:52;31.77;;;20.35;;
25127;SDS011;13107;51.304;6.866;2023-05-10T05:07:54;31.08;;;20.58;;
25127;SDS011;13107;51.304;6.866;2023-05-10T05:11:56;32.58;;;21.25;;
25127;SDS011;13107;51.304;6.866;2023-05-10T05:15:59;35.53;;;22.75;;
25127;SDS011;13107;51.304;6.866;2023-05-10T05:20:04;34.83;;;22.80;;
25127;SDS011;13107;51.304;6.866;2023-05-10T05:24:07;34.90;;;23.62;;
25127;SDS011;13107;51.304;6.866;2023-05-10T05:28:09;36.70;;;24.17;;
25127;SDS011;13107;51.304;6.866;2023-05-10T05:32:10;42.53;;;26.17;;
25127;SDS011;13107;51.304;6.866;2023-05-10T05:36:13;38.95;;;25.17;;
25127;SDS011;13107;51.304;6.866;2023-05-10T05:40:15;45.33;;;25.00;;
25127;SDS011;13107;51.304;6.866;2023-05-10T05:44:17;40.40;;;25.65;;
25127;SDS011;13107;51.304;6.866;2023-05-10T05:48:19;41.47;;;25.12;;
25127;SDS011;13107;51.304;6.866;2023-05-10T05:52:21;41.17;;;24.63;;
25127;SDS011;13107;51.304;6.866;2023-05-10T05:56:22;37.50;;;24.02;;
25127;SDS011;13107;51.304;6.866;2023-05-10T06:00:26;35.80;;;22.00;;
25127;SDS011;13107;51.304;6.866;2023-05-10T06:04:27;33.00;;;22.87;;
25127;SDS011;13107;51.304;6.866;2023-05-10T06:08:29;37.17;;;23.42;;
25127;SDS011;13107;51.304;6.866;2023-05-10T06:12:31;32.08;;;20.95;;
25127;SDS011;13107;51.304;6.866;2023-05-10T06:16:33;29.10;;;19.77;;
25127;SDS011;13107;51.304;6.866;2023-05-10T06:20:36;26.40;;;19.10;;
25127;SDS011;13107;51.304;6.866;2023-05-10T06:24:37;32.67;;;19.60;;
25127;SDS011;13107;51.304;6.866;2023-05-10T06:28:39;36.15;;;21.92;;
25127;SDS011;13107;51.304;6.866;2023-05-10T06:32:41;36.72;;;22.35;;
25127;SDS011;13107;51.304;6.866;2023-05-10T06:36:45;37.55;;;22.83;;
25127;SDS011;13107;51.304;6.866;2023-05-10T06:40:46;32.10;;;20.83;;
25127;SDS011;13107;51.304;6.866;2023-05-10T06:44:48;31.50;;;20.60;;
25127;SDS011;13107;51.304;6.866;2023-05-10T06:48:50;31.90;;;21.85;;
25127;SDS011;13107;51.304;6.866;2023-05-10T06:52:52;40.63;;;23.55;;
25127;SDS011;13107;51.304;6.866;2023-05-10T06:56:53;39.40;;;24.33;;
25127;SDS011;13107;51.304;6.866;2023-05-10T07:01:01;40.30;;;24.73;;
25127;SDS011;13107;51.304;6.866;2023-05-10T07:05:04;45.95;;;25.33;;
25127;SDS011;13107;51.304;6.866;2023-05-10T07:09:06;44.42;;;25.20;;
25127;SDS011;13107;51.304;6.866;2023-05-10T07:13:08;48.60;;;26.23;;
25127;SDS011;13107;51.304;6.866;2023-05-10T07:17:11;45.55;;;25.50;;
25127;SDS011;13107;51.304;6.866;2023-05-10T07:21:13;45.30;;;24.23;;
25127;SDS011;13107;51.304;6.866;2023-05-10T07:25:15;41.03;;;23.38;;
25127;SDS011;13107;51.304;6.866;2023-05-10T07:29:17;38.85;;;22.65;;
25127;SDS011;13107;51.304;6.866;2023-05-10T07:33:19;40.22;;;22.10;;
25127;SDS011;13107;51.304;6.866;2023-05-10T07:37:21;41.37;;;22.05;;
25127;SDS011;13107;51.304;6.866;2023-05-10T07:41:23;41.47;;;21.70;;
25127;SDS011;13107;51.304;6.866;2023-05-10T07:45:25;38.05;;;22.20;;
25127;SDS011;13107;51.304;6.866;2023-05-10T07:49:26;35.97;;;21.00;;
25127;SDS011;13107;51.304;6.866;2023-05-10T07:53:28;35.60;;;21.15;;
25127;SDS011;13107;51.304;6.866;2023-05-10T07:57:30;37.90;;;21.70;;
25127;SDS011;13107;51.304;6.866;2023-05-10T08:01:32;35.83;;;20.08;;
25127;SDS011;13107;51.304;6.866;2023-05-10T08:05:35;34.25;;;20.65;;
25127;SDS011;13107;51.304;6.866;2023-05-10T08:09:37;32.67;;;19.70;;
25127;SDS011;13107;51.304;6.866;2023-05-10T08:13:39;31.17;;;17.73;;
25127;SDS011;13107;51.304;6.866;2023-05-10T08:17:40;32.92;;;19.67;;
25127;SDS011;13107;51.304;6.866;2023-05-10T08:21:42;34.35;;;20.45;;
25127;SDS011;13107;51.304;6.866;2023-05-10T08:25:44;44.33;;;23.05;;
25127;SDS011;13107;51.304;6.866;2023-05-10T08:29:46;43.05;;;23.52;;
25127;SDS011;13107;51.304;6.866;2023-05-10T08:33:51;45.28;;;25.00;;
25127;SDS011;13107;51.304;6.866;2023-05-10T08:37:58;46.58;;;25.08;;
25127;SDS011;13107;51.304;6.866;2023-05-10T08:42:01;46.80;;;27.35;;
25127;SDS011;13107;51.304;6.866;2023-05-10T08:46:05;47.08;;;26.58;;
25127;SDS011;13107;51.304;6.866;2023-05-10T08:50:09;50.88;;;28.00;;
25127;SDS011;13107;51.304;6.866;2023-05-10T08:54:11;46.33;;;27.98;;
25127;SDS011;13107;51.304;6.866;2023-05-10T08:58:13;46.22;;;26.23;;
25127;SDS011;13107;51.304;6.866;2023-05-10T09:02:15;46.25;;;27.33;;
25127;SDS011;13107;51.304;6.866;2023-05-10T09:06:19;49.17;;;27.02;;
25127;SDS011;13107;51.304;6.866;2023-05-10T09:10:21;48.25;;;27.50;;
25127;SDS011;13107;51.304;6.866;2023-05-10T09:14:24;46.90;;;27.27;;
25127;SDS011;13107;51.304;6.866;2023-05-10T09:18:26;50.00;;;27.13;;
25127;SDS011;13107;51.304;6.866;2023-05-10T09:22:28;45.05;;;26.85;;
25127;SDS011;13107;51.304;6.866;2023-05-10T09:26:31;43.15;;;26.33;;
25127;SDS011;13107;51.304;6.866;2023-05-10T09:30:33;42.13;;;24.73;;
25127;SDS011;13107;51.304;6.866;2023-05-10T09:34:35;42.88;;;24.42;;
25127;SDS011;13107;51.304;6.866;2023-05-10T09:42:59;35.20;;;21.87;;
25127;SDS011;13107;51.304;6.866;2023-05-10T09:47:04;28.38;;;18.80;;
25127;SDS011;13107;51.304;6.866;2023-05-10T09:51:05;28.62;;;17.52;;
25127;SDS011;13107;51.304;6.866;2023-05-10T09:55:08;23.20;;;15.50;;
25127;SDS011;13107;51.304;6.866;2023-05-10T09:59:10;18.25;;;13.40;;
25127;SDS011;13107;51.304;6.866;2023-05-10T10:03:13;21.12;;;14.20;;
25127;SDS011;13107;51.304;6.866;2023-05-10T10:07:17;20.02;;;14.13;;
25127;SDS011;13107;51.304;6.866;2023-05-10T10:11:24;17.25;;;13.02;;
25127;SDS011;13107;51.304;6.866;2023-05-10T10:15:26;20.40;;;13.93;;
25127;SDS011;13107;51.304;6.866;2023-05-10T10:19:28;19.67;;;13.65;;
25127;SDS011;13107;51.304;6.866;2023-05-10T10:23:31;22.35;;;15.52;;
25127;SDS011;13107;51.304;6.866;2023-05-10T10:40:34;23.67;;;16.52;;
25127;SDS011;13107;51.304;6.866;2023-05-10T10:44:37;22.48;;;14.77;;
25127;SDS011;13107;51.304;6.866;2023-05-10T10:53:10;22.67;;;14.98;;
25127;SDS011;13107;51.304;6.866;2023-05-10T10:57:13;22.73;;;15.00;;
25127;SDS011;13107;51.304;6.866;2023-05-10T11:01:16;22.73;;;15.00;;
25127;SDS011;13107;51.304;6.866;2023-05-10T11:05:38;21.80;;;14.80;;
25127;SDS011;13107;51.304;6.866;2023-05-10T11:09:42;20.50;;;14.63;;
25127;SDS011;13107;51.304;6.866;2023-05-10T11:13:44;19.48;;;13.60;;
25127;SDS011;13107;51.304;6.866;2023-05-10T11:17:51;17.35;;;12.73;;
25127;SDS011;13107;51.304;6.866;2023-05-10T11:26:08;23.23;;;12.27;;
25127;SDS011;13107;51.304;6.866;2023-05-10T11:30:12;18.75;;;13.15;;
25127;SDS011;13107;51.304;6.866;2023-05-10T11:34:26;20.05;;;12.82;;
25127;SDS011;13107;51.304;6.866;2023-05-10T11:38:32;22.20;;;13.98;;
25127;SDS011;13107;51.304;6.866;2023-05-10T11:42:36;21.42;;;14.68;;
25127;SDS011;13107;51.304;6.866;2023-05-10T11:46:39;22.25;;;14.85;;
25127;SDS011;13107;51.304;6.866;2023-05-10T11:50:40;28.02;;;16.70;;
25127;SDS011;13107;51.304;6.866;2023-05-10T11:54:45;24.48;;;17.77;;
25127;SDS011;13107;51.304;6.866;2023-05-10T11:58:53;22.80;;;17.80;;
25127;SDS011;13107;51.304;6.866;2023-05-10T12:02:56;20.05;;;15.38;;
25127;SDS011;13107;51.304;6.866;2023-05-10T12:06:59;23.83;;;16.83;;
25127;SDS011;13107;51.304;6.866;2023-05-10T12:11:05;20.20;;;15.18;;
25127;SDS011;13107;51.304;6.866;2023-05-10T12:15:12;19.40;;;14.00;;
25127;SDS011;13107;51.304;6.866;2023-05-10T12:19:22;16.83;;;13.30;;
25127;SDS011;13107;51.304;6.866;2023-05-10T12:23:24;16.48;;;13.10;;
25127;SDS011;13107;51.304;6.866;2023-05-10T12:27:31;17.23;;;13.73;;
25127;SDS011;13107;51.304;6.866;2023-05-10T12:31:51;14.57;;;12.02;;
25127;SDS011;13107;51.304;6.866;2023-05-10T12:35:54;15.07;;;12.20;;
25127;SDS011;13107;51.304;6.866;2023-05-10T12:39:56;11.65;;;9.95;;
25127;SDS011;13107;51.304;6.866;2023-05-10T12:43:57;11.98;;;9.57;;
25127;SDS011;13107;51.304;6.866;2023-05-10T12:47:59;12.20;;;10.10;;
25127;SDS011;13107;51.304;6.866;2023-05-10T12:52:01;16.95;;;11.85;;
25127;SDS011;13107;51.304;6.866;2023-05-10T12:56:03;16.83;;;10.88;;
25127;SDS011;13107;51.304;6.866;2023-05-10T13:00:05;15.65;;;12.57;;
25127;SDS011;13107;51.304;6.866;2023-05-10T13:04:08;15.05;;;10.80;;
25127;SDS011;13107;51.304;6.866;2023-05-10T13:08:09;15.75;;;11.68;;
25127;SDS011;13107;51.304;6.866;2023-05-10T13:12:11;15.18;;;12.30;;
25127;SDS011;13107;51.304;6.866;2023-05-10T13:16:13;14.00;;;11.55;;
25127;SDS011;13107;51.304;6.866;2023-05-10T13:20:15;14.15;;;12.10;;
25127;SDS011;13107;51.304;6.866;2023-05-10T13:24:17;18.23;;;12.57;;
25127;SDS011;13107;51.304;6.866;2023-05-10T13:28:19;16.83;;;13.43;;
25127;SDS011;13107;51.304;6.866;2023-05-10T13:32:20;17.80;;;13.98;;
25127;SDS011;13107;51.304;6.866;2023-05-10T13:36:22;16.33;;;13.82;;
25127;SDS011;13107;51.304;6.866;2023-05-10T13:40:24;18.23;;;13.80;;
25127;SDS011;13107;51.304;6.866;2023-05-10T13:44:26;15.48;;;11.98;;
25127;SDS011;13107;51.304;6.866;2023-05-10T13:48:28;16.87;;;13.77;;
25127;SDS011;13107;51.304;6.866;2023-05-10T13:52:29;17.05;;;13.10;;
25127;SDS011;13107;51.304;6.866;2023-05-10T13:56:31;18.65;;;13.68;;
25127;SDS011;13107;51.304;6.866;2023-05-10T14:00:33;17.70;;;14.00;;
25127;SDS011;13107;51.304;6.866;2023-05-10T14:04:35;17.98;;;13.90;;
25127;SDS011;13107;51.304;6.866;2023-05-10T14:08:37;16.73;;;13.02;;
25127;SDS011;13107;51.304;6.866;2023-05-10T14:12:38;18.75;;;14.27;;
25127;SDS011;13107;51.304;6.866;2023-05-10T14:16:44;21.80;;;16.37;;
25127;SDS011;13107;51.304;6.866;2023-05-10T14:20:46;19.27;;;15.52;;
25127;SDS011;13107;51.304;6.866;2023-05-10T14:24:48;17.65;;;14.95;;
25127;SDS011;13107;51.304;6.866;2023-05-10T14:28:50;18.77;;;14.50;;
25127;SDS011;13107;51.304;6.866;2023-05-10T14:32:52;20.08;;;15.30;;
25127;SDS011;13107;51.304;6.866;2023-05-10T14:36:55;18.40;;;14.52;;
25127;SDS011;13107;51.304;6.866;2023-05-10T14:40:57;17.77;;;13.38;;
25127;SDS011;13107;51.304;6.866;2023-05-10T14:44:58;15.52;;;12.88;;
25127;SDS011;13107;51.304;6.866;2023-05-10T14:49:00;14.00;;;12.32;;
25127;SDS011;13107;51.304;6.866;2023-05-10T14:53:02;13.07;;;11.25;;
25127;SDS011;13107;51.304;6.866;2023-05-10T14:57:04;15.77;;;11.73;;
25127;SDS011;13107;51.304;6.866;2023-05-10T15:01:06;15.43;;;13.20;;
25127;SDS011;13107;51.304;6.866;2023-05-10T15:05:08;17.05;;;12.77;;
25127;SDS011;13107;51.304;6.866;2023-05-10T15:09:10;18.40;;;13.65;;
25127;SDS011;13107;51.304;6.866;2023-05-10T15:13:12;16.50;;;13.13;;
25127;SDS011;13107;51.304;6.866;2023-05-10T15:17:14;15.73;;;13.32;;
25127;SDS011;13107;51.304;6.866;2023-05-10T15:21:15;15.98;;;12.30;;
25127;SDS011;13107;51.304;6.866;2023-05-10T15:25:17;12.20;;;10.10;;
25127;SDS011;13107;51.304;6.866;2023-05-10T15:29:19;11.50;;;9.40;;
25127;SDS011;13107;51.304;6.866;2023-05-10T15:33:21;13.45;;;10.32;;
25127;SDS011;13107;51.304;6.866;2023-05-10T15:37:24;11.20;;;9.00;;
25127;SDS011;13107;51.304;6.866;2023-05-10T15:41:26;10.73;;;8.18;;
25127;SDS011;13107;51.304;6.866;2023-05-10T15:45:27;10.73;;;8.70;;
25127;SDS011;13107;51.304;6.866;2023-05-10T15:49:29;10.80;;;8.32;;
25127;SDS011;13107;51.304;6.866;2023-05-10T15:53:31;9.85;;;8.02;;
25127;SDS011;13107;51.304;6.866;2023-05-10T15:57:33;8.82;;;6.60;;
25127;SDS011;13107;51.304;6.866;2023-05-10T16:01:37;11.50;;;7.37;;
25127;SDS011;13107;51.304;6.866;2023-05-10T16:05:38;8.38;;;6.90;;
25127;SDS011;13107;51.304;6.866;2023-05-10T16:09:40;7.95;;;6.55;;
25127;SDS011;13107;51.304;6.866;2023-05-10T16:13:42;7.22;;;5.35;;
25127;SDS011;13107;51.304;6.866;2023-05-10T16:17:43;6.45;;;4.18;;
25127;SDS011;13107;51.304;6.866;2023-05-10T16:21:45;6.55;;;3.00;;
25127;SDS011;13107;51.304;6.866;2023-05-10T16:25:47;5.05;;;2.30;;
25127;SDS011;13107;51.304;6.866;2023-05-10T16:29:49;4.45;;;2.40;;
25127;SDS011;13107;51.304;6.866;2023-05-10T16:33:51;3.28;;;2.00;;
25127;SDS011;13107;51.304;6.866;2023-05-10T16:37:52;4.53;;;1.85;;
25127;SDS011;13107;51.304;6.866;2023-05-10T16:41:54;3.12;;;1.55;;
25127;SDS011;13107;51.304;6.866;2023-05-10T16:45:56;4.03;;;1.35;;
25127;SDS011;13107;51.304;6.866;2023-05-10T16:49:58;2.85;;;1.62;;
25127;SDS011;13107;51.304;6.866;2023-05-10T16:54:01;1.98;;;1.20;;
25127;SDS011;13107;51.304;6.866;2023-05-10T16:58:04;3.17;;;1.00;;
25127;SDS011;13107;51.304;6.866;2023-05-10T17:02:06;3.75;;;0.90;;
25127;SDS011;13107;51.304;6.866;2023-05-10T17:06:07;3.45;;;0.88;;
25127;SDS011;13107;51.304;6.866;2023-05-10T17:10:09;1.73;;;0.90;;
25127;SDS011;13107;51.304;6.866;2023-05-10T17:14:11;2.35;;;1.00;;
25127;SDS011;13107;51.304;6.866;2023-05-10T17:18:13;1.95;;;1.40;;
25127;SDS011;13107;51.304;6.866;2023-05-10T17:22:15;2.22;;;1.70;;
25127;SDS011;13107;51.304;6.866;2023-05-10T17:26:17;3.15;;;1.60;;
25127;SDS011;13107;51.304;6.866;2023-05-10T17:30:18;5.10;;;1.92;;
25127;SDS011;13107;51.304;6.866;2023-05-10T17:38:27;4.62;;;2.20;;
25127;SDS011;13107;51.304;6.866;2023-05-10T17:42:29;7.18;;;3.40;;
25127;SDS011;13107;51.304;6.866;2023-05-10T17:46:31;7.95;;;3.92;;
25127;SDS011;13107;51.304;6.866;2023-05-10T17:50:33;6.00;;;4.32;;
25127;SDS011;13107;51.304;6.866;2023-05-10T17:54:35;5.70;;;3.42;;
25127;SDS011;13107;51.304;6.866;2023-05-10T17:58:37;4.95;;;3.35;;
25127;SDS011;13107;51.304;6.866;2023-05-10T18:02:38;3.75;;;2.72;;
25127;SDS011;13107;51.304;6.866;2023-05-10T18:06:40;3.78;;;2.15;;
25127;SDS011;13107;51.304;6.866;2023-05-10T18:10:42;3.90;;;2.00;;
25127;SDS011;13107;51.304;6.866;2023-05-10T18:14:44;2.75;;;1.92;;
25127;SDS011;13107;51.304;6.866;2023-05-10T18:18:45;4.30;;;3.20;;
25127;SDS011;13107;51.304;6.866;2023-05-10T18:22:47;4.62;;;3.72;;
25127;SDS011;13107;51.304;6.866;2023-05-10T18:26:49;5.30;;;3.20;;
25127;SDS011;13107;51.304;6.866;2023-05-10T18:30:51;4.30;;;3.25;;
25127;SDS011;13107;51.304;6.866;2023-05-10T18:34:52;4.72;;;3.67;;
25127;SDS011;13107;51.304;6.866;2023-05-10T18:38:56;3.90;;;3.42;;
25127;SDS011;13107;51.304;6.866;2023-05-10T18:42:58;5.28;;;3.72;;
25127;SDS011;13107;51.304;6.866;2023-05-10T18:47:00;6.43;;;4.93;;
25127;SDS011;13107;51.304;6.866;2023-05-10T18:51:01;6.40;;;4.87;;
25127;SDS011;13107;51.304;6.866;2023-05-10T18:55:03;6.35;;;4.68;;
25127;SDS011;13107;51.304;6.866;2023-05-10T18:59:06;7.53;;;5.53;;
25127;SDS011;13107;51.304;6.866;2023-05-10T19:03:07;6.72;;;5.97;;
25127;SDS011;13107;51.304;6.866;2023-05-10T19:07:09;11.52;;;5.82;;
25127;SDS011;13107;51.304;6.866;2023-05-10T19:11:11;8.38;;;6.05;;
25127;SDS011;13107;51.304;6.866;2023-05-10T19:15:13;8.15;;;6.47;;
25127;SDS011;13107;51.304;6.866;2023-05-10T19:19:15;10.13;;;6.60;;
25127;SDS011;13107;51.304;6.866;2023-05-10T19:23:16;9.48;;;5.90;;
25127;SDS011;13107;51.304;6.866;2023-05-10T19:27:18;11.32;;;6.00;;
25127;SDS011;13107;51.304;6.866;2023-05-10T19:31:20;12.35;;;5.93;;
25127;SDS011;13107;51.304;6.866;2023-05-10T19:35:22;6.97;;;5.60;;
25127;SDS011;13107;51.304;6.866;2023-05-10T19:39:24;7.68;;;6.03;;
25127;SDS011;13107;51.304;6.866;2023-05-10T19:43:27;9.30;;;6.80;;
25127;SDS011;13107;51.304;6.866;2023-05-10T19:47:34;9.35;;;6.60;;
25127;SDS011;13107;51.304;6.866;2023-05-10T19:51:36;7.95;;;6.37;;
25127;SDS011;13107;51.304;6.866;2023-05-10T19:55:38;7.53;;;6.25;;
25127;SDS011;13107;51.304;6.866;2023-05-10T19:59:40;8.63;;;6.00;;
25127;SDS011;13107;51.304;6.866;2023-05-10T20:03:43;8.85;;;6.45;;
25127;SDS011;13107;51.304;6.866;2023-05-10T20:07:44;12.75;;;7.00;;
25127;SDS011;13107;51.304;6.866;2023-05-10T20:11:47;10.15;;;7.18;;
25127;SDS011;13107;51.304;6.866;2023-05-10T20:15:49;12.20;;;7.47;;
25127;SDS011;13107;51.304;6.866;2023-05-10T20:19:50;9.95;;;8.25;;
25127;SDS011;13107;51.304;6.866;2023-05-10T20:23:52;9.95;;;7.78;;
25127;SDS011;13107;51.304;6.866;2023-05-10T20:27:54;9.35;;;8.00;;
25127;SDS011;13107;51.304;6.866;2023-05-10T20:31:55;10.02;;;7.55;;
25127;SDS011;13107;51.304;6.866;2023-05-10T20:35:57;11.85;;;8.00;;
25127;SDS011;13107;51.304;6.866;2023-05-10T20:39:59;11.70;;;7.90;;
25127;SDS011;13107;51.304;6.866;2023-05-10T20:44:00;9.18;;;7.53;;
25127;SDS011;13107;51.304;6.866;2023-05-10T20:48:02;10.13;;;7.05;;
25127;SDS011;13107;51.304;6.866;2023-05-10T20:52:04;14.63;;;6.93;;
25127;SDS011;13107;51.304;6.866;2023-05-10T20:56:06;9.30;;;7.20;;
25127;SDS011;13107;51.304;6.866;2023-05-10T21:00:08;11.57;;;7.78;;
25127;SDS011;13107;51.304;6.866;2023-05-10T21:04:10;12.70;;;6.72;;
25127;SDS011;13107;51.304;6.866;2023-05-10T21:08:12;13.57;;;8.15;;
25127;SDS011;13107;51.304;6.866;2023-05-10T21:12:14;10.38;;;8.65;;
25127;SDS011;13107;51.304;6.866;2023-05-10T21:16:15;13.85;;;8.93;;
25127;SDS011;13107;51.304;6.866;2023-05-10T21:20:17;10.55;;;7.05;;
25127;SDS011;13107;51.304;6.866;2023-05-10T21:24:19;12.25;;;8.48;;
25127;SDS011;13107;51.304;6.866;2023-05-10T21:28:21;16.75;;;9.32;;
25127;SDS011;13107;51.304;6.866;2023-05-10T21:32:23;14.13;;;9.10;;
25127;SDS011;13107;51.304;6.866;2023-05-10T21:36:25;13.75;;;9.13;;
25127;SDS011;13107;51.304;6.866;2023-05-10T21:40:27;13.60;;;10.07;;
25127;SDS011;13107;51.304;6.866;2023-05-10T21:44:29;13.62;;;10.63;;
25127;SDS011;13107;51.304;6.866;2023-05-10T21:48:31;13.10;;;10.75;;
25127;SDS011;13107;51.304;6.866;2023-05-10T21:52:33;14.60;;;10.70;;
25127;SDS011;13107;51.304;6.866;2023-05-10T21:56:35;12.90;;;10.23;;
25127;SDS011;13107;51.304;6.866;2023-05-10T22:00:37;12.82;;;10.23;;
25127;SDS011;13107;51.304;6.866;2023-05-10T22:04:39;15.68;;;10.88;;
25127;SDS011;13107;51.304;6.866;2023-05-10T22:08:40;16.87;;;11.05;;
25127;SDS011;13107;51.304;6.866;2023-05-10T22:12:42;14.50;;;10.25;;
25127;SDS011;13107;51.304;6.866;2023-05-10T22:16:43;15.10;;;10.00;;
25127;SDS011;13107;51.304;6.866;2023-05-10T22:20:45;16.50;;;9.43;;
25127;SDS011;13107;51.304;6.866;2023-05-10T22:24:47;14.82;;;9.75;;
25127;SDS011;13107;51.304;6.866;2023-05-10T22:28:49;14.27;;;10.15;;
25127;SDS011;13107;51.304;6.866;2023-05-10T22:32:50;15.75;;;10.20;;
25127;SDS011;13107;51.304;6.866;2023-05-10T22:36:52;12.07;;;10.02;;
25127;SDS011;13107;51.304;6.866;2023-05-10T22:40:54;11.50;;;9.07;;
25127;SDS011;13107;51.304;6.866;2023-05-10T22:44:55;15.98;;;9.93;;
25127;SDS011;13107;51.304;6.866;2023-05-10T22:48:58;12.18;;;9.57;;
25127;SDS011;13107;51.304;6.866;2023-05-10T22:53:00;15.40;;;10.48;;
25127;SDS011;13107;51.304;6.866;2023-05-10T22:57:02;14.07;;;10.18;;
25127;SDS011;13107;51.304;6.866;2023-05-10T23:01:04;15.07;;;10.60;;
25127;SDS011;13107;51.304;6.866;2023-05-10T23:05:06;22.60;;;12.23;;
25127;SDS011;13107;51.304;6.866;2023-05-10T23:09:08;17.85;;;11.80;;
25127;SDS011;13107;51.304;6.866;2023-05-10T23:13:10;19.52;;;11.80;;
25127;SDS011;13107;51.304;6.866;2023-05-10T23:17:12;18.95;;;11.68;;
25127;SDS011;13107;51.304;6.866;2023-05-10T23:21:13;16.33;;;12.15;;
25127;SDS011;13107;51.304;6.866;2023-05-10T23:25:15;20.77;;;12.80;;
25127;SDS011;13107;51.304;6.866;2023-05-10T23:29:17;19.95;;;13.77;;
25127;SDS011;13107;51.304;6.866;2023-05-10T23:33:19;15.48;;;11.90;;
25127;SDS011;13107;51.304;6.866;2023-05-10T23:37:20;19.15;;;14.07;;
25127;SDS011;13107;51.304;6.866;2023-05-10T23:41:22;19.83;;;15.20;;
25127;SDS011;13107;51.304;6.866;2023-05-10T23:45:26;19.75;;;14.60;;
25127;SDS011;13107;51.304;6.866;2023-05-10T23:49:28;20.95;;;14.50;;
25127;SDS011;13107;51.304;6.866;2023-05-10T23:53:30;22.50;;;14.55;;
25127;SDS011;13107;51.304;6.866;2023-05-10T23:57:31;21.42;;;13.60;;
